createdAt,value
2019-05-20T00:01:38.218Z,11.93
2019-05-20T00:03:39.482Z,12.47
2019-05-20T00:05:40.808Z,12.58
2019-05-20T00:07:42.180Z,11.97
2019-05-20T00:09:43.525Z,11.78
2019-05-20T00:11:44.916Z,12.40
2019-05-20T00:13:46.181Z,10.82
2019-05-20T00:15:47.464Z,11.97
2019-05-20T00:17:48.742Z,12.15
2019-05-20T00:19:50.793Z,13.50
2019-05-20T00:21:52.241Z,11.05
2019-05-20T00:23:53.513Z,15.03
2019-05-20T00:25:54.838Z,12.55
2019-05-20T00:27:56.253Z,13.62
2019-05-20T00:29:57.618Z,12.68
2019-05-20T00:31:58.993Z,11.65
2019-05-20T00:34:00.379Z,13.28
2019-05-20T00:36:01.787Z,13.20
2019-05-20T00:38:03.337Z,12.88
2019-05-20T00:40:07.023Z,12.90
2019-05-20T00:42:08.277Z,11.35
2019-05-20T00:44:09.567Z,13.22
2019-05-20T00:46:10.870Z,11.50
2019-05-20T00:48:12.248Z,16.27
2019-05-20T00:50:13.634Z,15.05
2019-05-20T00:54:16.450Z,16.95
2019-05-20T00:56:17.840Z,15.50
2019-05-20T00:58:19.115Z,14.60
2019-05-20T01:00:20.618Z,13.72
2019-05-20T01:02:21.955Z,13.62
2019-05-20T01:04:23.238Z,13.18
2019-05-20T01:06:24.518Z,12.50
2019-05-20T01:08:25.884Z,11.93
2019-05-20T01:10:27.165Z,13.75
2019-05-20T01:12:28.474Z,12.88
2019-05-20T01:14:29.790Z,13.20
2019-05-20T01:16:31.417Z,13.40
2019-05-20T01:18:32.941Z,11.35
2019-05-20T01:20:35.466Z,15.43
2019-05-20T01:22:37.124Z,16.27
2019-05-20T01:24:38.603Z,14.93
2019-05-20T01:26:39.956Z,12.78
2019-05-20T01:28:41.221Z,13.25
2019-05-20T01:30:42.501Z,12.47
2019-05-20T01:32:44.067Z,13.78
2019-05-20T01:36:46.489Z,13.17
2019-05-20T01:38:47.771Z,12.80
2019-05-20T01:40:49.041Z,17.73
2019-05-20T01:42:50.374Z,17.70
2019-05-20T01:44:51.985Z,17.48
2019-05-20T01:48:54.419Z,15.33
2019-05-20T01:50:55.787Z,13.72
2019-05-20T01:52:57.109Z,14.98
2019-05-20T01:54:58.658Z,15.32
2019-05-20T01:56:59.934Z,16.45
2019-05-20T01:59:01.204Z,15.70
2019-05-20T02:01:02.482Z,15.38
2019-05-20T02:03:03.758Z,12.58
2019-05-20T02:05:05.825Z,12.68
2019-05-20T02:07:07.121Z,12.53
2019-05-20T02:09:08.390Z,11.30
2019-05-20T02:11:09.675Z,13.43
2019-05-20T02:13:11.049Z,13.35
2019-05-20T02:15:23.374Z,13.32
2019-05-20T02:17:24.740Z,12.63
2019-05-20T02:19:26.046Z,12.58
2019-05-20T02:21:27.420Z,12.93
2019-05-20T02:23:28.671Z,12.73
2019-05-20T02:25:29.946Z,12.33
2019-05-20T02:27:31.330Z,11.97
2019-05-20T02:29:32.620Z,13.10
2019-05-20T02:31:33.976Z,14.23
2019-05-20T02:33:50.702Z,13.28
2019-05-20T02:35:38.447Z,13.50
2019-05-20T02:37:40.079Z,14.70
2019-05-20T02:41:42.500Z,15.00
2019-05-20T02:43:43.934Z,14.50
2019-05-20T02:45:45.225Z,18.50
2019-05-20T02:47:46.500Z,21.25
2019-05-20T02:49:47.961Z,18.35
2019-05-20T02:51:49.238Z,23.27
2019-05-20T02:53:50.504Z,22.42
2019-05-20T02:55:51.775Z,20.20
2019-05-20T02:57:53.063Z,19.98
2019-05-20T02:59:54.438Z,17.15
2019-05-20T03:01:55.710Z,18.27
2019-05-20T03:04:10.638Z,16.77
2019-05-20T03:06:00.161Z,18.55
2019-05-20T03:08:01.573Z,16.90
2019-05-20T03:10:04.256Z,17.05
2019-05-20T03:12:06.541Z,15.55
2019-05-20T03:14:08.017Z,13.30
2019-05-20T03:16:09.371Z,15.05
2019-05-20T03:18:10.760Z,15.63
2019-05-20T03:20:12.220Z,15.20
2019-05-20T03:22:13.493Z,13.80
2019-05-20T03:24:14.802Z,14.45
2019-05-20T03:26:16.081Z,13.03
2019-05-20T03:28:17.341Z,15.15
2019-05-20T03:30:18.618Z,14.10
2019-05-20T03:32:19.891Z,15.40
2019-05-20T03:34:43.992Z,15.50
2019-05-20T03:36:24.346Z,14.85
2019-05-20T03:38:25.611Z,15.18
2019-05-20T03:40:27.006Z,14.53
2019-05-20T03:42:29.287Z,12.60
2019-05-20T03:44:32.028Z,16.97
2019-05-20T03:46:33.354Z,17.17
2019-05-20T03:48:35.658Z,15.55
2019-05-20T03:50:36.921Z,16.67
2019-05-20T03:52:38.191Z,17.73
2019-05-20T03:54:39.461Z,16.00
2019-05-20T03:56:40.739Z,15.45
2019-05-20T03:58:42.039Z,14.38
2019-05-20T04:00:45.129Z,18.75
2019-05-20T04:02:46.505Z,18.87
2019-05-20T04:05:01.312Z,20.12
2019-05-20T04:06:51.011Z,20.08
2019-05-20T04:08:52.344Z,17.35
2019-05-20T04:10:53.622Z,19.98
2019-05-20T04:12:54.889Z,18.15
2019-05-20T04:14:56.162Z,16.52
2019-05-20T04:16:57.467Z,16.00
2019-05-20T04:18:58.723Z,16.10
2019-05-20T04:20:59.999Z,16.55
2019-05-20T04:23:01.599Z,16.27
2019-05-20T04:25:05.414Z,15.70
2019-05-20T04:27:07.932Z,13.83
2019-05-20T04:29:09.444Z,15.00
2019-05-20T04:31:10.802Z,17.60
2019-05-20T04:33:12.399Z,17.15
2019-05-20T04:35:22.248Z,16.23
2019-05-20T04:37:30.474Z,22.37
2019-05-20T04:41:35.802Z,25.25
2019-05-20T04:43:36.855Z,30.52
2019-05-20T04:45:39.491Z,22.82
2019-05-20T04:47:40.801Z,31.37
2019-05-20T04:49:42.072Z,28.62
2019-05-20T04:51:43.677Z,35.92
2019-05-20T04:55:46.507Z,24.30
2019-05-20T04:57:47.799Z,23.38
2019-05-20T04:59:49.436Z,19.37
2019-05-20T05:01:50.751Z,19.52
2019-05-20T05:05:54.358Z,17.70
2019-05-20T05:07:55.792Z,18.00
2019-05-20T05:09:57.318Z,17.42
2019-05-20T05:11:58.609Z,28.75
2019-05-20T05:13:59.903Z,32.95
2019-05-20T05:16:01.526Z,26.23
2019-05-20T05:20:04.695Z,30.97
2019-05-20T05:22:06.063Z,30.92
2019-05-20T05:24:07.471Z,35.65
2019-05-20T05:26:08.834Z,38.90
2019-05-20T05:28:10.142Z,35.63
2019-05-20T05:30:11.547Z,41.25
2019-05-20T05:32:12.902Z,41.90
2019-05-20T05:34:14.279Z,44.03
2019-05-20T05:36:15.555Z,44.90
2019-05-20T05:38:16.856Z,45.88
2019-05-20T05:40:22.219Z,48.30
2019-05-20T05:42:23.548Z,48.15
2019-05-20T05:44:25.157Z,53.20
2019-05-20T05:46:26.435Z,50.95
2019-05-20T05:48:27.742Z,48.73
2019-05-20T05:50:29.819Z,46.68
2019-05-20T05:52:31.685Z,45.30
2019-05-20T05:54:32.957Z,46.98
2019-05-20T05:56:34.263Z,50.25
2019-05-20T05:58:35.636Z,48.83
2019-05-20T06:00:36.904Z,48.85
2019-05-20T06:02:38.179Z,49.18
2019-05-20T06:04:39.459Z,36.98
2019-05-20T06:06:40.774Z,47.20
2019-05-20T06:08:43.475Z,44.53
2019-05-20T06:10:44.817Z,49.73
2019-05-20T06:12:46.366Z,49.35
2019-05-20T06:14:48.994Z,43.30
2019-05-20T06:18:51.973Z,47.93
2019-05-20T06:20:53.565Z,49.18
2019-05-20T06:24:56.179Z,39.05
2019-05-20T06:26:57.452Z,45.12
2019-05-20T06:28:58.735Z,44.90
2019-05-20T06:31:00.004Z,29.40
2019-05-20T06:33:01.279Z,42.10
2019-05-20T06:35:04.589Z,37.90
2019-05-20T06:37:08.141Z,33.80
2019-05-20T06:39:10.638Z,46.65
2019-05-20T06:41:12.128Z,38.65
2019-05-20T06:43:13.653Z,48.10
2019-05-20T06:45:15.158Z,50.08
2019-05-20T06:47:16.565Z,48.35
2019-05-20T06:49:17.857Z,49.98
2019-05-20T06:51:19.130Z,51.68
2019-05-20T06:53:20.625Z,49.67
2019-05-20T06:55:21.930Z,43.98
2019-05-20T06:57:24.003Z,38.85
2019-05-20T06:59:25.388Z,47.30
2019-05-20T07:01:27.047Z,44.48
2019-05-20T07:05:29.499Z,36.98
2019-05-20T07:07:30.824Z,50.70
2019-05-20T07:09:32.127Z,48.63
2019-05-20T07:11:33.437Z,46.30
2019-05-20T07:13:34.814Z,49.60
2019-05-20T07:15:36.135Z,53.90
2019-05-20T07:17:37.841Z,53.08
2019-05-20T07:19:39.473Z,54.23
2019-05-20T07:23:42.006Z,38.58
2019-05-20T07:25:43.649Z,51.40
2019-05-20T07:27:45.357Z,45.03
2019-05-20T07:31:48.207Z,49.30
2019-05-20T07:33:49.517Z,39.18
2019-05-20T07:35:51.140Z,48.95
2019-05-20T07:37:52.431Z,48.48
2019-05-20T07:39:53.710Z,47.23
2019-05-20T07:41:55.019Z,45.98
2019-05-20T07:43:56.732Z,42.67
2019-05-20T07:46:00.079Z,44.55
2019-05-20T07:48:02.290Z,46.95
2019-05-20T07:50:05.248Z,45.45
2019-05-20T07:52:06.771Z,44.83
2019-05-20T07:56:22.606Z,43.75
2019-05-20T07:58:26.168Z,45.88
2019-05-20T08:00:28.037Z,44.98
2019-05-20T08:02:29.663Z,45.80
2019-05-20T08:06:32.231Z,40.88
2019-05-20T08:08:33.546Z,40.73
2019-05-20T08:10:35.118Z,36.65
2019-05-20T08:12:36.393Z,40.08
2019-05-20T08:14:37.991Z,39.75
2019-05-20T08:16:39.298Z,38.88
2019-05-20T08:18:40.559Z,39.38
2019-05-20T08:20:41.827Z,37.15
2019-05-20T08:22:43.401Z,37.88
2019-05-20T08:26:46.210Z,38.30
2019-05-20T08:32:51.046Z,27.32
2019-05-20T08:34:52.320Z,28.57
2019-05-20T08:36:53.612Z,36.93
2019-05-20T08:38:54.957Z,27.00
2019-05-20T08:40:56.729Z,30.60
2019-05-20T08:42:58.155Z,26.12
2019-05-20T08:44:59.518Z,26.05
2019-05-20T08:47:00.791Z,29.30
2019-05-20T08:49:02.327Z,29.82
2019-05-20T08:53:05.086Z,34.30
2019-05-20T08:55:07.114Z,29.00
2019-05-20T08:57:08.786Z,33.00
2019-05-20T08:59:10.440Z,34.58
2019-05-20T09:03:14.217Z,33.18
2019-05-20T09:07:17.281Z,38.90
2019-05-20T09:11:20.203Z,36.58
2019-05-20T09:13:21.765Z,36.83
2019-05-20T09:17:24.614Z,37.93
2019-05-20T09:19:25.958Z,39.48
2019-05-20T09:21:27.638Z,37.00
2019-05-20T09:23:29.121Z,32.73
2019-05-20T09:25:31.390Z,36.77
2019-05-20T09:27:32.793Z,38.73
2019-05-20T09:29:37.867Z,41.60
2019-05-20T09:31:38.250Z,37.05
2019-05-20T09:33:39.614Z,42.20
2019-05-20T09:35:41.014Z,43.63
2019-05-20T09:37:42.611Z,40.52
2019-05-20T09:39:43.991Z,35.78
2019-05-20T09:41:45.322Z,45.25
2019-05-20T09:43:46.623Z,44.85
2019-05-20T09:46:04.180Z,44.77
2019-05-20T09:47:52.168Z,39.98
2019-05-20T09:49:53.445Z,45.52
2019-05-20T09:51:55.022Z,35.75
2019-05-20T09:53:56.761Z,37.95
2019-05-20T09:55:58.416Z,44.70
2019-05-20T10:00:04.626Z,45.20
2019-05-20T10:02:08.361Z,44.10
2019-05-20T10:04:10.036Z,44.93
2019-05-20T10:06:11.753Z,45.25
2019-05-20T10:08:13.549Z,40.12
2019-05-20T10:10:15.945Z,45.70
2019-05-20T10:12:18.045Z,45.17
2019-05-20T10:14:19.991Z,36.98
2019-05-20T10:16:21.849Z,34.70
2019-05-20T10:18:36.627Z,44.77
2019-05-20T10:20:27.648Z,45.48
2019-05-20T10:22:29.347Z,42.53
2019-05-20T10:24:30.708Z,43.45
2019-05-20T10:26:32.079Z,42.67
2019-05-20T10:28:33.349Z,38.90
2019-05-20T10:30:34.994Z,32.35
2019-05-20T10:32:36.378Z,38.70
2019-05-20T10:34:38.015Z,46.15
2019-05-20T10:38:56.788Z,40.65
2019-05-20T10:40:44.012Z,41.37
2019-05-20T10:42:45.560Z,41.08
2019-05-20T10:46:48.077Z,43.80
2019-05-20T10:48:49.405Z,42.33
2019-05-20T10:50:50.718Z,32.55
2019-05-20T10:52:52.015Z,33.53
2019-05-20T10:54:54.388Z,39.67
2019-05-20T10:56:59.149Z,41.37
2019-05-20T10:58:59.128Z,43.80
2019-05-20T11:01:02.977Z,42.65
2019-05-20T11:03:03.760Z,34.10
2019-05-20T11:05:05.742Z,39.42
2019-05-20T11:07:07.125Z,31.93
2019-05-20T11:09:14.189Z,34.73
2019-05-20T11:11:14.331Z,40.00
2019-05-20T11:13:14.860Z,43.98
2019-05-20T11:15:16.864Z,38.73
2019-05-20T11:17:18.652Z,35.68
2019-05-20T11:19:21.082Z,33.70
2019-05-20T11:21:22.638Z,40.38
2019-05-20T11:23:23.944Z,35.50
2019-05-20T11:25:25.322Z,34.63
2019-05-20T11:27:26.613Z,28.92
2019-05-20T11:29:28.148Z,31.30
2019-05-20T11:33:31.006Z,39.92
2019-05-20T11:35:32.411Z,34.45
2019-05-20T11:37:34.251Z,37.90
2019-05-20T11:39:35.896Z,37.20
2019-05-20T11:41:52.656Z,35.40
2019-05-20T11:43:40.549Z,32.73
2019-05-20T11:45:42.498Z,38.55
2019-05-20T11:49:45.439Z,34.67
2019-05-20T11:51:46.830Z,36.20
2019-05-20T11:53:48.390Z,28.70
2019-05-20T11:55:49.745Z,31.50
2019-05-20T11:57:51.123Z,34.23
2019-05-20T11:59:52.463Z,37.13
2019-05-20T12:01:54.026Z,38.20
2019-05-20T12:03:55.696Z,34.55
2019-05-20T12:05:57.017Z,30.08
2019-05-20T12:07:58.682Z,27.90
2019-05-20T12:10:00.043Z,34.33
2019-05-20T12:12:01.438Z,36.70
2019-05-20T12:16:04.267Z,33.83
2019-05-20T12:18:05.954Z,36.50
2019-05-20T12:20:08.918Z,32.20
2019-05-20T12:22:11.117Z,33.92
2019-05-20T12:24:12.410Z,32.23
2019-05-20T12:26:15.116Z,32.93
2019-05-20T12:28:16.783Z,36.40
2019-05-20T12:30:19.144Z,40.90
2019-05-20T12:32:20.501Z,38.60
2019-05-20T12:34:21.834Z,36.75
2019-05-20T12:38:24.394Z,33.38
2019-05-20T12:40:25.807Z,33.92
2019-05-20T12:42:27.315Z,37.08
2019-05-20T12:44:29.890Z,35.85
2019-05-20T12:46:31.258Z,33.15
2019-05-20T12:50:34.158Z,40.35
2019-05-20T12:54:36.691Z,40.10
2019-05-20T12:56:38.010Z,36.75
2019-05-20T12:58:39.843Z,34.10
2019-05-20T13:00:41.208Z,32.08
2019-05-20T13:02:42.602Z,38.95
2019-05-20T13:06:45.381Z,33.60
2019-05-20T13:08:46.735Z,32.10
2019-05-20T13:10:48.625Z,33.02
2019-05-20T13:12:50.701Z,37.85
2019-05-20T13:14:52.155Z,32.83
2019-05-20T13:18:56.472Z,35.03
2019-05-20T13:20:58.998Z,30.15
2019-05-20T13:23:00.467Z,33.30
2019-05-20T13:27:03.523Z,31.68
2019-05-20T13:31:07.250Z,28.30
2019-05-20T13:33:08.528Z,29.23
2019-05-20T13:41:14.400Z,34.85
2019-05-20T13:43:15.715Z,38.15
2019-05-20T13:47:18.355Z,38.30
2019-05-20T13:49:19.635Z,33.38
2019-05-20T13:51:20.919Z,38.08
2019-05-20T13:53:22.212Z,38.20
2019-05-20T13:55:23.729Z,38.88
2019-05-20T13:59:26.213Z,34.13
2019-05-20T14:03:28.751Z,39.35
2019-05-20T14:05:30.335Z,42.25
2019-05-20T14:07:31.638Z,40.43
2019-05-20T14:09:32.930Z,33.53
2019-05-20T14:13:36.446Z,44.45
2019-05-20T14:15:38.025Z,36.60
2019-05-20T14:17:39.431Z,45.15
2019-05-20T14:21:42.059Z,29.52
2019-05-20T14:25:44.593Z,37.33
2019-05-20T14:27:45.879Z,38.45
2019-05-20T14:29:47.150Z,40.95
2019-05-20T14:31:48.513Z,38.90
2019-05-20T14:43:57.296Z,42.23
2019-05-20T14:45:58.677Z,32.23
2019-05-20T14:50:01.304Z,38.53
2019-05-20T14:54:04.369Z,34.60
2019-05-20T14:56:05.738Z,39.55
2019-05-20T15:00:08.789Z,35.23
2019-05-20T15:02:10.202Z,41.18
2019-05-20T15:06:12.726Z,32.00
2019-05-20T15:08:14.255Z,39.40
2019-05-20T15:32:30.426Z,38.10
2019-05-20T15:34:31.936Z,34.85
2019-05-20T15:38:34.721Z,33.65
2019-05-20T15:40:36.018Z,31.35
2019-05-20T15:44:38.638Z,33.80
2019-05-20T15:46:39.919Z,34.20
2019-05-20T15:48:41.223Z,26.07
2019-05-20T15:50:42.587Z,29.85
2019-05-20T15:52:44.020Z,36.83
2019-05-20T15:56:46.590Z,29.18
2019-05-20T15:58:47.927Z,28.27
2019-05-20T16:02:50.867Z,23.90
2019-05-20T16:06:54.039Z,22.98
2019-05-20T16:08:55.422Z,21.95
2019-05-20T16:12:57.979Z,20.62
2019-05-20T16:17:00.450Z,24.77
2019-05-20T16:19:01.738Z,24.10
2019-05-20T16:21:04.347Z,26.02
2019-05-20T16:23:05.634Z,24.95
2019-05-20T16:25:07.275Z,22.20
2019-05-20T16:27:08.586Z,19.12
2019-05-20T16:29:10.165Z,17.52
2019-05-20T16:33:12.670Z,14.25
2019-05-20T16:37:15.366Z,15.23
2019-05-20T16:39:16.654Z,16.23
2019-05-20T16:43:19.492Z,17.87
2019-05-20T16:47:22.099Z,24.10
2019-05-20T16:49:23.396Z,28.40
2019-05-20T16:51:24.968Z,32.78
2019-05-20T16:55:27.511Z,36.05
2019-05-20T16:57:28.924Z,20.10
2019-05-20T16:59:30.271Z,15.70
2019-05-20T17:01:45.313Z,23.30
2019-05-20T17:03:36.891Z,29.95
2019-05-20T17:05:38.901Z,31.17
2019-05-20T17:07:40.223Z,32.78
2019-05-20T17:09:42.729Z,35.08
2019-05-20T17:11:45.107Z,27.25
2019-05-20T17:13:46.450Z,26.75
2019-05-20T17:15:47.847Z,28.27
2019-05-20T17:17:49.467Z,33.20
2019-05-20T17:19:50.754Z,45.60
2019-05-20T17:21:53.135Z,47.83
2019-05-20T17:23:55.411Z,46.15
2019-05-20T17:25:56.696Z,53.55
2019-05-20T17:27:59.003Z,60.43
2019-05-20T17:30:00.304Z,60.17
2019-05-20T17:32:01.797Z,56.77
2019-05-20T17:34:05.091Z,48.60
2019-05-20T17:36:06.773Z,47.00
2019-05-20T17:40:10.208Z,45.40
2019-05-20T17:42:11.617Z,44.83
2019-05-20T17:44:14.967Z,45.55
2019-05-20T17:46:16.401Z,47.88
2019-05-20T17:48:17.842Z,45.40
2019-05-20T17:50:19.492Z,44.80
2019-05-20T17:54:22.151Z,34.90
2019-05-20T17:58:25.141Z,45.58
2019-05-20T18:00:26.644Z,45.17
2019-05-20T18:02:27.935Z,47.88
2019-05-20T18:04:29.278Z,46.85
2019-05-20T18:06:30.698Z,51.05
2019-05-20T18:08:33.860Z,49.98
2019-05-20T18:10:35.180Z,41.98
2019-05-20T18:12:36.535Z,50.52
2019-05-20T18:14:41.087Z,48.73
2019-05-20T18:16:42.371Z,51.40
2019-05-20T18:18:45.019Z,53.70
2019-05-20T18:20:47.510Z,51.42
2019-05-20T18:24:50.128Z,47.60
2019-05-20T18:26:51.407Z,41.33
2019-05-20T18:28:52.682Z,43.33
2019-05-20T18:30:53.967Z,46.90
2019-05-20T18:32:55.335Z,39.23
2019-05-20T18:34:56.732Z,41.33
2019-05-20T18:36:58.134Z,44.77
2019-05-20T18:38:59.403Z,38.63
2019-05-20T18:41:01.054Z,48.05
2019-05-20T18:45:05.328Z,48.15
2019-05-20T18:47:06.707Z,42.65
2019-05-20T18:49:07.978Z,47.50
2019-05-20T18:51:09.487Z,47.53
2019-05-20T18:53:10.777Z,46.68
2019-05-20T18:55:12.157Z,43.60
2019-05-20T18:57:13.536Z,41.75
2019-05-20T18:59:14.902Z,45.23
2019-05-20T19:01:19.462Z,46.55
2019-05-20T19:03:20.247Z,41.75
2019-05-20T19:05:22.198Z,42.85
2019-05-20T19:09:24.877Z,36.53
2019-05-20T19:11:26.274Z,33.95
2019-05-20T19:15:29.272Z,41.37
2019-05-20T19:17:30.623Z,41.58
2019-05-20T19:19:32.030Z,40.38
2019-05-20T19:21:33.316Z,41.98
2019-05-20T19:23:35.673Z,40.60
2019-05-20T19:25:38.121Z,36.98
2019-05-20T19:27:39.844Z,34.10
2019-05-20T19:31:42.281Z,34.93
2019-05-20T19:33:43.550Z,31.55
2019-05-20T19:35:44.814Z,33.58
2019-05-20T19:37:46.338Z,32.25
2019-05-20T19:39:47.617Z,32.05
2019-05-20T19:41:49.158Z,31.33
2019-05-20T19:43:50.802Z,33.28
2019-05-20T19:47:53.503Z,31.00
2019-05-20T19:51:55.931Z,31.17
2019-05-20T19:53:57.202Z,34.15
2019-05-20T19:55:58.494Z,31.80
2019-05-20T19:57:59.852Z,33.50
2019-05-20T20:00:01.938Z,33.13
2019-05-20T20:02:16.484Z,31.50
2019-05-20T20:04:07.570Z,34.88
2019-05-20T20:06:08.936Z,34.98
2019-05-20T20:08:10.464Z,34.70
2019-05-20T20:10:11.922Z,35.10
2019-05-20T20:12:13.255Z,34.45
2019-05-20T20:14:14.539Z,35.30
2019-05-20T20:16:18.082Z,36.80
2019-05-20T20:18:18.985Z,36.68
2019-05-20T20:20:20.512Z,35.55
2019-05-20T20:24:23.025Z,27.25
2019-05-20T20:26:24.341Z,34.25
2019-05-20T20:28:26.697Z,37.42
2019-05-20T20:30:27.957Z,34.10
2019-05-20T20:32:37.814Z,33.48
2019-05-20T20:34:32.689Z,35.70
2019-05-20T20:36:33.954Z,33.48
2019-05-20T20:38:35.228Z,36.45
2019-05-20T20:40:36.498Z,36.83
2019-05-20T20:42:38.030Z,35.28
2019-05-20T20:44:40.417Z,36.13
2019-05-20T20:46:41.771Z,36.85
2019-05-20T20:48:43.080Z,36.10
2019-05-20T20:50:44.369Z,36.80
2019-05-20T20:52:46.039Z,36.63
2019-05-20T20:56:48.766Z,33.00
2019-05-20T20:58:50.144Z,35.48
2019-05-20T21:00:51.414Z,37.63
2019-05-20T21:02:53.929Z,35.58
2019-05-20T21:04:55.401Z,34.73
2019-05-20T21:06:56.746Z,36.85
2019-05-20T21:08:58.050Z,37.25
2019-05-20T21:10:59.423Z,37.83
2019-05-20T21:13:00.723Z,34.65
2019-05-20T21:15:03.008Z,36.98
2019-05-20T21:17:06.081Z,36.15
2019-05-20T21:19:07.457Z,37.08
2019-05-20T21:21:08.960Z,40.75
2019-05-20T21:25:11.498Z,36.65
2019-05-20T21:27:12.778Z,37.13
2019-05-20T21:29:14.385Z,39.48
2019-05-20T21:31:15.758Z,38.23
2019-05-20T21:33:17.054Z,37.03
2019-05-20T21:35:18.623Z,38.02
2019-05-20T21:39:21.190Z,36.53
2019-05-20T21:41:22.466Z,37.80
2019-05-20T21:43:24.025Z,38.75
2019-05-20T21:47:26.889Z,36.08
2019-05-20T21:49:28.182Z,34.00
2019-05-20T21:51:29.451Z,34.53
2019-05-20T21:53:30.991Z,34.65
2019-05-20T21:55:32.258Z,36.90
2019-05-20T21:57:33.728Z,30.77
2019-05-20T21:59:35.274Z,37.33
2019-05-20T22:03:38.194Z,35.55
2019-05-20T22:05:39.613Z,33.80
2019-05-20T22:07:40.946Z,33.40
2019-05-20T22:09:42.422Z,31.93
2019-05-20T22:11:43.757Z,30.43
2019-05-20T22:13:45.100Z,29.77
2019-05-20T22:15:46.745Z,29.87
2019-05-20T22:17:49.130Z,29.55
2019-05-20T22:19:50.446Z,28.57
2019-05-20T22:21:56.539Z,29.05
2019-05-20T22:24:02.520Z,31.40
2019-05-20T22:26:03.796Z,29.05
2019-05-20T22:28:05.075Z,32.00
2019-05-20T22:30:07.170Z,29.77
2019-05-20T22:32:08.462Z,31.73
2019-05-20T22:34:09.841Z,30.20
2019-05-20T22:36:11.203Z,27.07
2019-05-20T22:38:12.624Z,29.65
2019-05-20T22:40:14.177Z,26.33
2019-05-20T22:44:16.718Z,23.73
2019-05-20T22:46:18.339Z,24.12
2019-05-20T22:48:19.626Z,26.15
2019-05-20T22:50:21.159Z,25.72
2019-05-20T22:52:22.675Z,28.10
2019-05-20T22:54:23.970Z,24.92
2019-05-20T22:56:25.268Z,25.75
2019-05-20T22:58:26.545Z,23.25
2019-05-20T23:00:27.827Z,29.37
2019-05-20T23:02:29.393Z,28.85
2019-05-20T23:06:32.395Z,29.92
2019-05-20T23:08:33.811Z,30.68
2019-05-20T23:10:35.143Z,27.67
2019-05-20T23:12:36.429Z,30.55
2019-05-20T23:14:37.810Z,29.48
2019-05-20T23:16:39.079Z,30.60
2019-05-20T23:18:40.361Z,32.60
2019-05-20T23:20:42.049Z,29.75
2019-05-20T23:22:43.426Z,30.70
2019-05-20T23:24:44.726Z,29.82
2019-05-20T23:26:46.007Z,31.35
2019-05-20T23:28:47.328Z,29.52
2019-05-20T23:30:48.970Z,31.55
2019-05-20T23:34:51.427Z,32.53
2019-05-20T23:36:52.701Z,32.83
2019-05-20T23:38:53.970Z,30.68
2019-05-20T23:40:55.259Z,31.82
2019-05-20T23:42:56.547Z,31.07
2019-05-20T23:44:57.849Z,30.77
2019-05-20T23:46:59.400Z,31.85
2019-05-20T23:49:00.970Z,32.40
2019-05-20T23:51:02.323Z,32.38
2019-05-20T23:53:03.614Z,32.80
2019-05-20T23:55:06.734Z,31.25
2019-05-20T23:57:08.037Z,27.87
2019-05-20T23:59:09.443Z,31.62
